Terminal Aerodrome Forecast
Issued by NWS

Home | Current Version | Previous Version | Text Only | Print | Product List | Glossary On
Versions: 1 2 3 4 5 6 7 8 9 10 11 12 13 14 15 16 17
000
FTUS43 KMQT 062016 AAA
TAFCMX
TAF AMD
KCMX 062016Z 0620/0718 19015KT 1SM -SN OVC020
     FM062100 19014G23KT P6SM BKN025
     FM070300 24012G21KT P6SM BKN045
     FM070900 24016G26KT 5SM -SN BLSN BKN040
     FM071300 25018G31KT 1SM -SN BLSN OVC015
     FM071600 25019G33KT 1SM -SN BLSN OVC015=

USA.gov is the U.S. government's official web portal to all federal, state and local government web resources and services.